sensor_id;sensor_type;location;lat;lon;timestamp;P1;durP1;ratioP1;P2;durP2;ratioP2
75616;SDS011;64200;55.426;37.758;2022-12-18T00:01:39;10.80;;;5.25;;
75616;SDS011;64200;55.426;37.758;2022-12-18T00:06:40;9.25;;;4.88;;
75616;SDS011;64200;55.426;37.758;2022-12-18T00:11:41;6.87;;;3.47;;
75616;SDS011;64200;55.426;37.758;2022-12-18T00:16:44;8.70;;;4.25;;
75616;SDS011;64200;55.426;37.758;2022-12-18T00:21:46;10.57;;;5.47;;
75616;SDS011;64200;55.426;37.758;2022-12-18T00:26:46;4.20;;;2.57;;
75616;SDS011;64200;55.426;37.758;2022-12-18T00:31:47;8.82;;;4.70;;
75616;SDS011;64200;55.426;37.758;2022-12-18T00:36:47;7.00;;;3.33;;
75616;SDS011;64200;55.426;37.758;2022-12-18T00:41:48;7.35;;;3.78;;
75616;SDS011;64200;55.426;37.758;2022-12-18T00:47:08;3.92;;;2.25;;
75616;SDS011;64200;55.426;37.758;2022-12-18T00:52:08;6.53;;;3.70;;
75616;SDS011;64200;55.426;37.758;2022-12-18T00:57:09;8.43;;;4.20;;
75616;SDS011;64200;55.426;37.758;2022-12-18T01:02:09;7.20;;;3.83;;
75616;SDS011;64200;55.426;37.758;2022-12-18T01:07:10;7.37;;;3.97;;
75616;SDS011;64200;55.426;37.758;2022-12-18T01:12:10;10.07;;;3.33;;
75616;SDS011;64200;55.426;37.758;2022-12-18T01:17:11;6.28;;;2.42;;
75616;SDS011;64200;55.426;37.758;2022-12-18T01:22:11;8.27;;;3.90;;
75616;SDS011;64200;55.426;37.758;2022-12-18T01:27:12;2.60;;;2.07;;
75616;SDS011;64200;55.426;37.758;2022-12-18T01:32:12;3.80;;;2.70;;
75616;SDS011;64200;55.426;37.758;2022-12-18T01:37:13;6.20;;;3.00;;
75616;SDS011;64200;55.426;37.758;2022-12-18T01:42:14;6.50;;;3.70;;
75616;SDS011;64200;55.426;37.758;2022-12-18T01:47:17;6.53;;;3.80;;
75616;SDS011;64200;55.426;37.758;2022-12-18T01:52:31;1.20;;;0.93;;
75616;SDS011;64200;55.426;37.758;2022-12-18T01:57:33;6.38;;;3.58;;
75616;SDS011;64200;55.426;37.758;2022-12-18T02:02:34;6.70;;;3.67;;
75616;SDS011;64200;55.426;37.758;2022-12-18T02:18:56;8.45;;;4.05;;
75616;SDS011;64200;55.426;37.758;2022-12-18T02:29:05;7.43;;;4.13;;
75616;SDS011;64200;55.426;37.758;2022-12-18T02:34:12;8.15;;;4.18;;
75616;SDS011;64200;55.426;37.758;2022-12-18T02:39:14;7.63;;;4.60;;
75616;SDS011;64200;55.426;37.758;2022-12-18T02:44:16;8.60;;;5.85;;
75616;SDS011;64200;55.426;37.758;2022-12-18T02:59:35;8.43;;;4.53;;
75616;SDS011;64200;55.426;37.758;2022-12-18T03:04:56;6.85;;;4.22;;
75616;SDS011;64200;55.426;37.758;2022-12-18T03:10:01;7.95;;;4.07;;
75616;SDS011;64200;55.426;37.758;2022-12-18T03:20:17;5.35;;;3.65;;
75616;SDS011;64200;55.426;37.758;2022-12-18T03:25:20;6.72;;;3.50;;
75616;SDS011;64200;55.426;37.758;2022-12-18T03:30:22;7.20;;;3.60;;
75616;SDS011;64200;55.426;37.758;2022-12-18T03:35:26;6.45;;;3.70;;
75616;SDS011;64200;55.426;37.758;2022-12-18T03:46:11;6.78;;;3.35;;
75616;SDS011;64200;55.426;37.758;2022-12-18T03:51:23;8.30;;;3.08;;
75616;SDS011;64200;55.426;37.758;2022-12-18T03:56:26;9.50;;;3.45;;
75616;SDS011;64200;55.426;37.758;2022-12-18T04:01:32;5.72;;;3.17;;
75616;SDS011;64200;55.426;37.758;2022-12-18T04:06:35;4.55;;;2.75;;
75616;SDS011;64200;55.426;37.758;2022-12-18T04:11:37;3.33;;;1.67;;
75616;SDS011;64200;55.426;37.758;2022-12-18T04:16:39;6.80;;;3.90;;
75616;SDS011;64200;55.426;37.758;2022-12-18T04:21:40;5.90;;;3.22;;
75616;SDS011;64200;55.426;37.758;2022-12-18T04:26:40;5.07;;;1.85;;
75616;SDS011;64200;55.426;37.758;2022-12-18T04:31:41;5.80;;;2.92;;
75616;SDS011;64200;55.426;37.758;2022-12-18T04:36:41;4.33;;;2.60;;
75616;SDS011;64200;55.426;37.758;2022-12-18T04:41:42;7.67;;;4.23;;
75616;SDS011;64200;55.426;37.758;2022-12-18T04:46:42;7.60;;;4.00;;
75616;SDS011;64200;55.426;37.758;2022-12-18T04:51:43;6.55;;;4.00;;
75616;SDS011;64200;55.426;37.758;2022-12-18T04:56:44;4.30;;;3.37;;
75616;SDS011;64200;55.426;37.758;2022-12-18T05:01:44;6.78;;;3.97;;
75616;SDS011;64200;55.426;37.758;2022-12-18T05:06:45;6.88;;;2.40;;
75616;SDS011;64200;55.426;37.758;2022-12-18T05:11:46;6.80;;;4.37;;
75616;SDS011;64200;55.426;37.758;2022-12-18T05:16:47;8.50;;;4.72;;
75616;SDS011;64200;55.426;37.758;2022-12-18T05:21:47;7.07;;;4.13;;
75616;SDS011;64200;55.426;37.758;2022-12-18T05:26:48;6.70;;;3.10;;
75616;SDS011;64200;55.426;37.758;2022-12-18T05:31:51;7.95;;;4.05;;
75616;SDS011;64200;55.426;37.758;2022-12-18T05:36:51;6.33;;;3.80;;
75616;SDS011;64200;55.426;37.758;2022-12-18T05:41:52;6.07;;;3.23;;
75616;SDS011;64200;55.426;37.758;2022-12-18T05:46:52;6.28;;;3.70;;
75616;SDS011;64200;55.426;37.758;2022-12-18T05:51:53;7.88;;;4.10;;
75616;SDS011;64200;55.426;37.758;2022-12-18T05:56:53;8.32;;;4.00;;
75616;SDS011;64200;55.426;37.758;2022-12-18T06:01:54;6.70;;;3.63;;
75616;SDS011;64200;55.426;37.758;2022-12-18T06:06:55;6.38;;;3.65;;
75616;SDS011;64200;55.426;37.758;2022-12-18T06:11:55;9.27;;;4.55;;
75616;SDS011;64200;55.426;37.758;2022-12-18T06:16:56;6.43;;;3.13;;
75616;SDS011;64200;55.426;37.758;2022-12-18T06:21:56;6.13;;;3.38;;
75616;SDS011;64200;55.426;37.758;2022-12-18T06:26:58;8.65;;;4.22;;
75616;SDS011;64200;55.426;37.758;2022-12-18T06:31:59;7.23;;;3.97;;
75616;SDS011;64200;55.426;37.758;2022-12-18T06:36:59;9.93;;;4.27;;
75616;SDS011;64200;55.426;37.758;2022-12-18T06:42:03;5.80;;;2.78;;
75616;SDS011;64200;55.426;37.758;2022-12-18T06:47:03;5.78;;;3.33;;
75616;SDS011;64200;55.426;37.758;2022-12-18T06:52:04;7.75;;;4.35;;
75616;SDS011;64200;55.426;37.758;2022-12-18T06:57:05;6.97;;;4.03;;
75616;SDS011;64200;55.426;37.758;2022-12-18T07:02:05;4.75;;;2.75;;
75616;SDS011;64200;55.426;37.758;2022-12-18T07:07:06;4.47;;;3.27;;
75616;SDS011;64200;55.426;37.758;2022-12-18T07:12:06;4.83;;;2.90;;
75616;SDS011;64200;55.426;37.758;2022-12-18T07:17:08;5.38;;;3.63;;
75616;SDS011;64200;55.426;37.758;2022-12-18T07:22:08;7.18;;;3.65;;
75616;SDS011;64200;55.426;37.758;2022-12-18T07:27:09;6.30;;;2.95;;
75616;SDS011;64200;55.426;37.758;2022-12-18T07:32:09;7.27;;;3.70;;
75616;SDS011;64200;55.426;37.758;2022-12-18T07:37:10;7.65;;;4.97;;
75616;SDS011;64200;55.426;37.758;2022-12-18T07:42:10;6.25;;;3.10;;
75616;SDS011;64200;55.426;37.758;2022-12-18T07:47:29;7.32;;;2.97;;
75616;SDS011;64200;55.426;37.758;2022-12-18T07:52:30;4.03;;;2.60;;
75616;SDS011;64200;55.426;37.758;2022-12-18T07:57:30;5.72;;;3.47;;
75616;SDS011;64200;55.426;37.758;2022-12-18T08:02:31;5.65;;;3.60;;
75616;SDS011;64200;55.426;37.758;2022-12-18T08:07:32;7.20;;;4.13;;
75616;SDS011;64200;55.426;37.758;2022-12-18T08:12:32;10.15;;;5.18;;
75616;SDS011;64200;55.426;37.758;2022-12-18T08:17:33;7.00;;;3.80;;
75616;SDS011;64200;55.426;37.758;2022-12-18T08:22:37;6.45;;;3.10;;
75616;SDS011;64200;55.426;37.758;2022-12-18T08:27:37;7.05;;;4.35;;
75616;SDS011;64200;55.426;37.758;2022-12-18T08:32:38;9.90;;;4.53;;
75616;SDS011;64200;55.426;37.758;2022-12-18T08:37:38;6.80;;;3.10;;
75616;SDS011;64200;55.426;37.758;2022-12-18T08:42:39;9.33;;;4.53;;
75616;SDS011;64200;55.426;37.758;2022-12-18T08:47:58;8.55;;;4.68;;
75616;SDS011;64200;55.426;37.758;2022-12-18T08:52:59;6.63;;;4.03;;
75616;SDS011;64200;55.426;37.758;2022-12-18T08:58:01;6.68;;;3.55;;
75616;SDS011;64200;55.426;37.758;2022-12-18T09:03:01;7.70;;;3.97;;
75616;SDS011;64200;55.426;37.758;2022-12-18T09:08:02;8.83;;;5.03;;
75616;SDS011;64200;55.426;37.758;2022-12-18T09:13:02;4.63;;;2.30;;
75616;SDS011;64200;55.426;37.758;2022-12-18T09:18:03;8.05;;;3.83;;
75616;SDS011;64200;55.426;37.758;2022-12-18T09:23:03;6.95;;;4.22;;
75616;SDS011;64200;55.426;37.758;2022-12-18T09:28:06;8.50;;;4.70;;
75616;SDS011;64200;55.426;37.758;2022-12-18T09:33:11;6.63;;;3.92;;
75616;SDS011;64200;55.426;37.758;2022-12-18T09:38:13;7.00;;;3.92;;
75616;SDS011;64200;55.426;37.758;2022-12-18T09:43:26;4.57;;;3.13;;
75616;SDS011;64200;55.426;37.758;2022-12-18T09:48:37;8.55;;;4.57;;
75616;SDS011;64200;55.426;37.758;2022-12-18T09:53:46;8.30;;;4.70;;
75616;SDS011;64200;55.426;37.758;2022-12-18T09:58:57;4.80;;;3.13;;
75616;SDS011;64200;55.426;37.758;2022-12-18T10:04:00;2.45;;;1.95;;
75616;SDS011;64200;55.426;37.758;2022-12-18T10:30:20;7.10;;;3.03;;
75616;SDS011;64200;55.426;37.758;2022-12-18T10:35:25;6.70;;;3.33;;
75616;SDS011;64200;55.426;37.758;2022-12-18T10:40:27;5.50;;;2.78;;
75616;SDS011;64200;55.426;37.758;2022-12-18T10:45:27;7.45;;;3.38;;
75616;SDS011;64200;55.426;37.758;2022-12-18T10:50:29;6.13;;;3.22;;
75616;SDS011;64200;55.426;37.758;2022-12-18T10:55:37;8.05;;;3.25;;
75616;SDS011;64200;55.426;37.758;2022-12-18T11:05:41;5.22;;;2.97;;
75616;SDS011;64200;55.426;37.758;2022-12-18T11:10:41;5.97;;;2.75;;
75616;SDS011;64200;55.426;37.758;2022-12-18T11:15:47;6.55;;;3.45;;
75616;SDS011;64200;55.426;37.758;2022-12-18T11:20:52;5.45;;;2.53;;
75616;SDS011;64200;55.426;37.758;2022-12-18T11:25:57;7.10;;;3.10;;
75616;SDS011;64200;55.426;37.758;2022-12-18T11:36:33;4.97;;;2.25;;
75616;SDS011;64200;55.426;37.758;2022-12-18T11:41:47;6.88;;;2.90;;
75616;SDS011;64200;55.426;37.758;2022-12-18T11:52:35;4.45;;;2.20;;
75616;SDS011;64200;55.426;37.758;2022-12-18T12:13:23;7.45;;;3.70;;
75616;SDS011;64200;55.426;37.758;2022-12-18T12:18:34;6.68;;;3.90;;
75616;SDS011;64200;55.426;37.758;2022-12-18T12:39:17;6.47;;;3.20;;
75616;SDS011;64200;55.426;37.758;2022-12-18T12:44:24;6.70;;;3.20;;
75616;SDS011;64200;55.426;37.758;2022-12-18T12:49:29;6.60;;;3.38;;
75616;SDS011;64200;55.426;37.758;2022-12-18T12:54:33;7.88;;;3.78;;
75616;SDS011;64200;55.426;37.758;2022-12-18T13:04:58;7.57;;;3.78;;
75616;SDS011;64200;55.426;37.758;2022-12-18T13:15:20;6.50;;;3.22;;
75616;SDS011;64200;55.426;37.758;2022-12-18T13:20:23;5.95;;;3.28;;
75616;SDS011;64200;55.426;37.758;2022-12-18T13:25:35;9.10;;;4.30;;
75616;SDS011;64200;55.426;37.758;2022-12-18T13:35:41;7.05;;;2.78;;
75616;SDS011;64200;55.426;37.758;2022-12-18T13:45:49;4.93;;;2.53;;
75616;SDS011;64200;55.426;37.758;2022-12-18T13:50:57;8.55;;;4.43;;
75616;SDS011;64200;55.426;37.758;2022-12-18T13:56:01;7.30;;;2.97;;
75616;SDS011;64200;55.426;37.758;2022-12-18T14:01:03;5.55;;;3.05;;
75616;SDS011;64200;55.426;37.758;2022-12-18T14:06:05;6.65;;;2.90;;
75616;SDS011;64200;55.426;37.758;2022-12-18T14:11:19;6.47;;;3.00;;
75616;SDS011;64200;55.426;37.758;2022-12-18T14:16:23;6.53;;;2.90;;
75616;SDS011;64200;55.426;37.758;2022-12-18T14:21:29;8.25;;;3.72;;
75616;SDS011;64200;55.426;37.758;2022-12-18T14:26:32;8.98;;;3.63;;
75616;SDS011;64200;55.426;37.758;2022-12-18T14:31:33;8.05;;;3.47;;
75616;SDS011;64200;55.426;37.758;2022-12-18T14:36:34;9.57;;;3.47;;
75616;SDS011;64200;55.426;37.758;2022-12-18T14:41:34;9.35;;;4.07;;
75616;SDS011;64200;55.426;37.758;2022-12-18T14:46:38;10.82;;;4.82;;
75616;SDS011;64200;55.426;37.758;2022-12-18T14:51:41;13.05;;;5.47;;
75616;SDS011;64200;55.426;37.758;2022-12-18T14:56:49;7.07;;;3.33;;
75616;SDS011;64200;55.426;37.758;2022-12-18T15:07:07;8.90;;;4.25;;
75616;SDS011;64200;55.426;37.758;2022-12-18T15:12:26;12.02;;;4.45;;
75616;SDS011;64200;55.426;37.758;2022-12-18T15:17:44;14.20;;;5.32;;
75616;SDS011;64200;55.426;37.758;2022-12-18T15:22:44;9.67;;;4.57;;
75616;SDS011;64200;55.426;37.758;2022-12-18T15:27:47;10.27;;;4.30;;
75616;SDS011;64200;55.426;37.758;2022-12-18T15:32:51;9.98;;;4.60;;
75616;SDS011;64200;55.426;37.758;2022-12-18T15:38:11;8.52;;;4.40;;
75616;SDS011;64200;55.426;37.758;2022-12-18T15:43:12;7.05;;;3.55;;
75616;SDS011;64200;55.426;37.758;2022-12-18T15:48:33;7.80;;;2.65;;
75616;SDS011;64200;55.426;37.758;2022-12-18T15:53:39;9.82;;;4.82;;
75616;SDS011;64200;55.426;37.758;2022-12-18T15:58:40;9.27;;;4.25;;
75616;SDS011;64200;55.426;37.758;2022-12-18T16:03:41;9.50;;;4.18;;
75616;SDS011;64200;55.426;37.758;2022-12-18T16:08:41;8.13;;;4.13;;
75616;SDS011;64200;55.426;37.758;2022-12-18T16:13:42;8.13;;;3.50;;
75616;SDS011;64200;55.426;37.758;2022-12-18T16:18:42;6.20;;;3.38;;
75616;SDS011;64200;55.426;37.758;2022-12-18T16:23:43;6.13;;;2.40;;
75616;SDS011;64200;55.426;37.758;2022-12-18T16:28:43;6.20;;;3.10;;
75616;SDS011;64200;55.426;37.758;2022-12-18T16:33:44;5.23;;;2.87;;
75616;SDS011;64200;55.426;37.758;2022-12-18T16:38:45;5.95;;;2.88;;
75616;SDS011;64200;55.426;37.758;2022-12-18T16:43:45;5.47;;;3.27;;
75616;SDS011;64200;55.426;37.758;2022-12-18T16:48:46;6.27;;;3.47;;
75616;SDS011;64200;55.426;37.758;2022-12-18T16:53:46;6.32;;;3.97;;
75616;SDS011;64200;55.426;37.758;2022-12-18T16:58:53;7.90;;;3.37;;
75616;SDS011;64200;55.426;37.758;2022-12-18T17:03:56;6.68;;;3.65;;
75616;SDS011;64200;55.426;37.758;2022-12-18T17:09:03;7.50;;;3.40;;
75616;SDS011;64200;55.426;37.758;2022-12-18T17:14:06;8.48;;;3.65;;
75616;SDS011;64200;55.426;37.758;2022-12-18T17:19:12;5.57;;;2.72;;
75616;SDS011;64200;55.426;37.758;2022-12-18T17:24:13;6.18;;;3.55;;
75616;SDS011;64200;55.426;37.758;2022-12-18T17:29:15;5.95;;;3.55;;
75616;SDS011;64200;55.426;37.758;2022-12-18T17:34:18;5.20;;;3.25;;
75616;SDS011;64200;55.426;37.758;2022-12-18T17:39:20;6.10;;;3.10;;
75616;SDS011;64200;55.426;37.758;2022-12-18T17:44:21;5.45;;;3.20;;
75616;SDS011;64200;55.426;37.758;2022-12-18T17:54:22;10.73;;;4.33;;
75616;SDS011;64200;55.426;37.758;2022-12-18T18:04:23;5.63;;;3.30;;
75616;SDS011;64200;55.426;37.758;2022-12-18T18:09:24;6.10;;;3.63;;
75616;SDS011;64200;55.426;37.758;2022-12-18T18:14:24;6.53;;;3.30;;
75616;SDS011;64200;55.426;37.758;2022-12-18T18:19:26;7.18;;;4.05;;
75616;SDS011;64200;55.426;37.758;2022-12-18T18:24:27;6.80;;;3.92;;
75616;SDS011;64200;55.426;37.758;2022-12-18T18:34:32;7.75;;;3.67;;
75616;SDS011;64200;55.426;37.758;2022-12-18T18:39:33;9.05;;;4.03;;
75616;SDS011;64200;55.426;37.758;2022-12-18T18:44:33;8.93;;;4.38;;
75616;SDS011;64200;55.426;37.758;2022-12-18T18:49:34;4.85;;;3.03;;
75616;SDS011;64200;55.426;37.758;2022-12-18T18:54:34;9.47;;;4.83;;
75616;SDS011;64200;55.426;37.758;2022-12-18T18:59:35;10.98;;;4.55;;
75616;SDS011;64200;55.426;37.758;2022-12-18T19:04:36;5.30;;;3.38;;
75616;SDS011;64200;55.426;37.758;2022-12-18T19:09:36;5.32;;;2.90;;
75616;SDS011;64200;55.426;37.758;2022-12-18T19:14:37;7.38;;;2.22;;
75616;SDS011;64200;55.426;37.758;2022-12-18T19:19:38;7.63;;;4.32;;
75616;SDS011;64200;55.426;37.758;2022-12-18T19:24:38;6.72;;;3.92;;
75616;SDS011;64200;55.426;37.758;2022-12-18T19:29:39;4.57;;;1.77;;
75616;SDS011;64200;55.426;37.758;2022-12-18T19:34:40;8.07;;;3.10;;
75616;SDS011;64200;55.426;37.758;2022-12-18T19:39:41;6.90;;;3.35;;
75616;SDS011;64200;55.426;37.758;2022-12-18T19:44:41;7.20;;;3.90;;
75616;SDS011;64200;55.426;37.758;2022-12-18T19:49:42;9.63;;;4.57;;
75616;SDS011;64200;55.426;37.758;2022-12-18T19:54:42;9.10;;;4.47;;
75616;SDS011;64200;55.426;37.758;2022-12-18T19:59:43;7.23;;;3.73;;
75616;SDS011;64200;55.426;37.758;2022-12-18T20:04:43;9.93;;;4.90;;
75616;SDS011;64200;55.426;37.758;2022-12-18T20:09:44;12.37;;;5.43;;
75616;SDS011;64200;55.426;37.758;2022-12-18T20:14:44;10.07;;;3.97;;
75616;SDS011;64200;55.426;37.758;2022-12-18T20:19:45;5.05;;;3.40;;
75616;SDS011;64200;55.426;37.758;2022-12-18T20:24:45;14.73;;;5.72;;
75616;SDS011;64200;55.426;37.758;2022-12-18T20:29:46;8.47;;;3.60;;
75616;SDS011;64200;55.426;37.758;2022-12-18T20:34:47;11.18;;;4.50;;
75616;SDS011;64200;55.426;37.758;2022-12-18T20:39:48;10.40;;;5.10;;
75616;SDS011;64200;55.426;37.758;2022-12-18T20:44:50;7.18;;;3.78;;
75616;SDS011;64200;55.426;37.758;2022-12-18T20:49:51;13.33;;;5.80;;
75616;SDS011;64200;55.426;37.758;2022-12-18T20:54:51;9.45;;;4.15;;
75616;SDS011;64200;55.426;37.758;2022-12-18T20:59:52;12.07;;;5.40;;
75616;SDS011;64200;55.426;37.758;2022-12-18T21:04:52;14.37;;;6.70;;
75616;SDS011;64200;55.426;37.758;2022-12-18T21:09:55;12.80;;;5.95;;
75616;SDS011;64200;55.426;37.758;2022-12-18T21:14:56;15.73;;;4.83;;
75616;SDS011;64200;55.426;37.758;2022-12-18T21:20:00;11.05;;;4.60;;
75616;SDS011;64200;55.426;37.758;2022-12-18T21:25:01;15.30;;;8.48;;
75616;SDS011;64200;55.426;37.758;2022-12-18T21:30:03;16.05;;;6.25;;
75616;SDS011;64200;55.426;37.758;2022-12-18T21:35:04;15.65;;;5.78;;
75616;SDS011;64200;55.426;37.758;2022-12-18T21:40:05;15.05;;;6.03;;
75616;SDS011;64200;55.426;37.758;2022-12-18T21:45:06;14.15;;;6.97;;
75616;SDS011;64200;55.426;37.758;2022-12-18T21:50:07;15.10;;;5.68;;
75616;SDS011;64200;55.426;37.758;2022-12-18T21:55:08;15.68;;;5.63;;
75616;SDS011;64200;55.426;37.758;2022-12-18T22:00:10;13.23;;;4.95;;
75616;SDS011;64200;55.426;37.758;2022-12-18T22:05:12;13.43;;;6.28;;
75616;SDS011;64200;55.426;37.758;2022-12-18T22:10:13;12.88;;;4.70;;
75616;SDS011;64200;55.426;37.758;2022-12-18T22:15:13;15.00;;;4.88;;
75616;SDS011;64200;55.426;37.758;2022-12-18T22:20:14;13.15;;;6.13;;
75616;SDS011;64200;55.426;37.758;2022-12-18T22:25:15;8.80;;;3.80;;
75616;SDS011;64200;55.426;37.758;2022-12-18T22:30:15;7.73;;;3.53;;
75616;SDS011;64200;55.426;37.758;2022-12-18T22:35:16;10.18;;;4.53;;
75616;SDS011;64200;55.426;37.758;2022-12-18T22:40:21;4.07;;;2.63;;
75616;SDS011;64200;55.426;37.758;2022-12-18T22:45:24;6.70;;;3.83;;
75616;SDS011;64200;55.426;37.758;2022-12-18T22:50:25;5.88;;;3.10;;
75616;SDS011;64200;55.426;37.758;2022-12-18T22:55:26;6.32;;;3.60;;
75616;SDS011;64200;55.426;37.758;2022-12-18T23:00:27;4.57;;;2.83;;
75616;SDS011;64200;55.426;37.758;2022-12-18T23:05:28;8.87;;;2.90;;
75616;SDS011;64200;55.426;37.758;2022-12-18T23:10:29;10.52;;;3.05;;
75616;SDS011;64200;55.426;37.758;2022-12-18T23:15:30;5.97;;;2.90;;
75616;SDS011;64200;55.426;37.758;2022-12-18T23:20:31;5.53;;;3.35;;
75616;SDS011;64200;55.426;37.758;2022-12-18T23:25:33;8.43;;;3.92;;
75616;SDS011;64200;55.426;37.758;2022-12-18T23:30:34;4.70;;;2.57;;
75616;SDS011;64200;55.426;37.758;2022-12-18T23:35:34;5.13;;;2.63;;
75616;SDS011;64200;55.426;37.758;2022-12-18T23:40:35;4.10;;;2.87;;
75616;SDS011;64200;55.426;37.758;2022-12-18T23:45:36;2.67;;;1.67;;
75616;SDS011;64200;55.426;37.758;2022-12-18T23:50:37;5.75;;;3.00;;
75616;SDS011;64200;55.426;37.758;2022-12-18T23:55:39;2.45;;;2.08;;
